sensor_id;sensor_type;location;lat;lon;timestamp;P1;durP1;ratioP1;P2;durP2;ratioP2
43529;SDS011;55654;50.966;6.878;2023-08-20T00:01:43;9.75;;;6.20;;
43529;SDS011;55654;50.966;6.878;2023-08-20T00:04:09;9.07;;;5.50;;
43529;SDS011;55654;50.966;6.878;2023-08-20T00:06:38;7.65;;;5.47;;
43529;SDS011;55654;50.966;6.878;2023-08-20T00:09:04;6.82;;;5.40;;
43529;SDS011;55654;50.966;6.878;2023-08-20T00:11:33;8.15;;;5.55;;
43529;SDS011;55654;50.966;6.878;2023-08-20T00:14:00;6.63;;;5.32;;
43529;SDS011;55654;50.966;6.878;2023-08-20T00:16:26;9.10;;;5.80;;
43529;SDS011;55654;50.966;6.878;2023-08-20T00:18:52;7.55;;;5.63;;
43529;SDS011;55654;50.966;6.878;2023-08-20T00:21:18;10.93;;;6.75;;
43529;SDS011;55654;50.966;6.878;2023-08-20T00:23:44;9.55;;;5.45;;
43529;SDS011;55654;50.966;6.878;2023-08-20T00:26:10;7.53;;;5.78;;
43529;SDS011;55654;50.966;6.878;2023-08-20T00:28:37;7.72;;;5.72;;
43529;SDS011;55654;50.966;6.878;2023-08-20T00:31:03;10.80;;;5.93;;
43529;SDS011;55654;50.966;6.878;2023-08-20T00:33:32;11.23;;;5.88;;
43529;SDS011;55654;50.966;6.878;2023-08-20T00:35:58;6.18;;;5.10;;
43529;SDS011;55654;50.966;6.878;2023-08-20T00:38:26;6.60;;;5.40;;
43529;SDS011;55654;50.966;6.878;2023-08-20T00:40:54;9.10;;;5.70;;
43529;SDS011;55654;50.966;6.878;2023-08-20T00:43:20;8.98;;;5.53;;
43529;SDS011;55654;50.966;6.878;2023-08-20T00:45:46;7.50;;;5.50;;
43529;SDS011;55654;50.966;6.878;2023-08-20T00:48:12;9.48;;;5.68;;
43529;SDS011;55654;50.966;6.878;2023-08-20T00:50:39;10.05;;;5.25;;
43529;SDS011;55654;50.966;6.878;2023-08-20T00:53:06;15.82;;;5.65;;
43529;SDS011;55654;50.966;6.878;2023-08-20T00:55:34;7.75;;;5.53;;
43529;SDS011;55654;50.966;6.878;2023-08-20T00:58:03;8.63;;;5.38;;
43529;SDS011;55654;50.966;6.878;2023-08-20T01:00:32;7.15;;;4.80;;
43529;SDS011;55654;50.966;6.878;2023-08-20T01:02:58;5.22;;;4.60;;
43529;SDS011;55654;50.966;6.878;2023-08-20T01:05:29;7.25;;;5.25;;
43529;SDS011;55654;50.966;6.878;2023-08-20T01:13:08;8.70;;;5.18;;
43529;SDS011;55654;50.966;6.878;2023-08-20T01:15:37;6.47;;;4.43;;
43529;SDS011;55654;50.966;6.878;2023-08-20T01:18:05;7.07;;;5.18;;
43529;SDS011;55654;50.966;6.878;2023-08-20T01:20:33;8.05;;;5.13;;
43529;SDS011;55654;50.966;6.878;2023-08-20T01:23:02;8.63;;;5.40;;
43529;SDS011;55654;50.966;6.878;2023-08-20T01:25:50;10.02;;;5.57;;
43529;SDS011;55654;50.966;6.878;2023-08-20T01:30:44;5.90;;;5.00;;
43529;SDS011;55654;50.966;6.878;2023-08-20T01:33:11;6.85;;;5.45;;
43529;SDS011;55654;50.966;6.878;2023-08-20T01:35:37;7.75;;;5.03;;
43529;SDS011;55654;50.966;6.878;2023-08-20T01:38:04;8.43;;;5.88;;
43529;SDS011;55654;50.966;6.878;2023-08-20T01:40:30;9.30;;;5.55;;
43529;SDS011;55654;50.966;6.878;2023-08-20T01:42:56;7.57;;;6.03;;
43529;SDS011;55654;50.966;6.878;2023-08-20T01:45:23;7.38;;;5.70;;
43529;SDS011;55654;50.966;6.878;2023-08-20T01:47:49;8.60;;;5.85;;
43529;SDS011;55654;50.966;6.878;2023-08-20T01:50:17;8.27;;;6.15;;
43529;SDS011;55654;50.966;6.878;2023-08-20T01:52:44;11.70;;;6.28;;
43529;SDS011;55654;50.966;6.878;2023-08-20T01:55:10;9.82;;;6.78;;
43529;SDS011;55654;50.966;6.878;2023-08-20T01:57:39;8.75;;;5.55;;
43529;SDS011;55654;50.966;6.878;2023-08-20T02:00:07;9.45;;;6.25;;
43529;SDS011;55654;50.966;6.878;2023-08-20T02:02:36;8.85;;;5.90;;
43529;SDS011;55654;50.966;6.878;2023-08-20T02:05:04;7.15;;;5.03;;
43529;SDS011;55654;50.966;6.878;2023-08-20T02:07:30;8.02;;;5.22;;
43529;SDS011;55654;50.966;6.878;2023-08-20T02:09:56;9.00;;;5.45;;
43529;SDS011;55654;50.966;6.878;2023-08-20T02:12:25;8.57;;;5.43;;
43529;SDS011;55654;50.966;6.878;2023-08-20T02:14:54;8.98;;;5.72;;
43529;SDS011;55654;50.966;6.878;2023-08-20T02:17:23;7.72;;;5.60;;
43529;SDS011;55654;50.966;6.878;2023-08-20T02:19:49;10.35;;;5.53;;
43529;SDS011;55654;50.966;6.878;2023-08-20T02:22:17;8.70;;;6.15;;
43529;SDS011;55654;50.966;6.878;2023-08-20T02:24:46;17.58;;;6.20;;
43529;SDS011;55654;50.966;6.878;2023-08-20T02:27:12;9.98;;;5.65;;
43529;SDS011;55654;50.966;6.878;2023-08-20T02:29:38;8.85;;;5.53;;
43529;SDS011;55654;50.966;6.878;2023-08-20T02:32:04;7.75;;;6.18;;
43529;SDS011;55654;50.966;6.878;2023-08-20T02:34:30;8.63;;;5.95;;
43529;SDS011;55654;50.966;6.878;2023-08-20T02:36:58;11.40;;;6.65;;
43529;SDS011;55654;50.966;6.878;2023-08-20T02:39:24;10.88;;;7.05;;
43529;SDS011;55654;50.966;6.878;2023-08-20T02:41:50;11.75;;;6.45;;
43529;SDS011;55654;50.966;6.878;2023-08-20T02:44:16;11.98;;;6.10;;
43529;SDS011;55654;50.966;6.878;2023-08-20T02:46:42;14.38;;;9.20;;
43529;SDS011;55654;50.966;6.878;2023-08-20T02:49:09;16.75;;;9.82;;
43529;SDS011;55654;50.966;6.878;2023-08-20T02:51:35;17.75;;;10.32;;
43529;SDS011;55654;50.966;6.878;2023-08-20T02:54:01;19.33;;;10.32;;
43529;SDS011;55654;50.966;6.878;2023-08-20T02:56:27;12.77;;;9.60;;
43529;SDS011;55654;50.966;6.878;2023-08-20T02:58:54;12.23;;;9.27;;
43529;SDS011;55654;50.966;6.878;2023-08-20T03:01:20;12.68;;;8.55;;
43529;SDS011;55654;50.966;6.878;2023-08-20T03:03:46;12.02;;;8.80;;
43529;SDS011;55654;50.966;6.878;2023-08-20T03:06:12;11.93;;;8.95;;
43529;SDS011;55654;50.966;6.878;2023-08-20T03:08:38;12.77;;;9.30;;
43529;SDS011;55654;50.966;6.878;2023-08-20T03:11:04;13.60;;;8.52;;
43529;SDS011;55654;50.966;6.878;2023-08-20T03:13:30;12.68;;;8.50;;
43529;SDS011;55654;50.966;6.878;2023-08-20T03:15:59;10.30;;;7.78;;
43529;SDS011;55654;50.966;6.878;2023-08-20T03:18:27;11.95;;;8.70;;
43529;SDS011;55654;50.966;6.878;2023-08-20T03:20:55;16.88;;;8.73;;
43529;SDS011;55654;50.966;6.878;2023-08-20T03:23:22;13.00;;;8.27;;
43529;SDS011;55654;50.966;6.878;2023-08-20T03:25:48;13.93;;;8.13;;
43529;SDS011;55654;50.966;6.878;2023-08-20T03:28:15;10.80;;;7.95;;
43529;SDS011;55654;50.966;6.878;2023-08-20T03:30:41;11.55;;;7.88;;
43529;SDS011;55654;50.966;6.878;2023-08-20T03:33:07;10.90;;;7.88;;
43529;SDS011;55654;50.966;6.878;2023-08-20T03:35:35;13.65;;;8.35;;
43529;SDS011;55654;50.966;6.878;2023-08-20T03:38:01;9.88;;;7.18;;
43529;SDS011;55654;50.966;6.878;2023-08-20T03:40:27;10.05;;;7.15;;
43529;SDS011;55654;50.966;6.878;2023-08-20T03:42:54;15.57;;;8.57;;
43529;SDS011;55654;50.966;6.878;2023-08-20T03:45:19;19.08;;;11.40;;
43529;SDS011;55654;50.966;6.878;2023-08-20T03:47:48;20.73;;;12.25;;
43529;SDS011;55654;50.966;6.878;2023-08-20T03:50:14;17.25;;;11.07;;
43529;SDS011;55654;50.966;6.878;2023-08-20T03:52:42;21.75;;;13.95;;
43529;SDS011;55654;50.966;6.878;2023-08-20T03:55:08;21.60;;;13.18;;
43529;SDS011;55654;50.966;6.878;2023-08-20T03:57:34;25.65;;;14.77;;
43529;SDS011;55654;50.966;6.878;2023-08-20T04:00:00;22.42;;;15.63;;
43529;SDS011;55654;50.966;6.878;2023-08-20T04:02:27;23.10;;;14.82;;
43529;SDS011;55654;50.966;6.878;2023-08-20T04:04:56;22.20;;;15.25;;
43529;SDS011;55654;50.966;6.878;2023-08-20T04:07:22;22.90;;;15.43;;
43529;SDS011;55654;50.966;6.878;2023-08-20T04:09:48;27.70;;;16.35;;
43529;SDS011;55654;50.966;6.878;2023-08-20T04:12:17;25.65;;;15.63;;
43529;SDS011;55654;50.966;6.878;2023-08-20T04:14:45;22.25;;;15.38;;
43529;SDS011;55654;50.966;6.878;2023-08-20T04:17:11;30.48;;;15.98;;
43529;SDS011;55654;50.966;6.878;2023-08-20T04:19:37;22.38;;;14.93;;
43529;SDS011;55654;50.966;6.878;2023-08-20T04:22:03;26.83;;;15.63;;
43529;SDS011;55654;50.966;6.878;2023-08-20T04:24:29;22.83;;;15.95;;
43529;SDS011;55654;50.966;6.878;2023-08-20T04:26:57;29.10;;;16.50;;
43529;SDS011;55654;50.966;6.878;2023-08-20T04:29:23;32.58;;;16.52;;
43529;SDS011;55654;50.966;6.878;2023-08-20T04:31:49;25.35;;;15.07;;
43529;SDS011;55654;50.966;6.878;2023-08-20T04:34:15;23.80;;;15.15;;
43529;SDS011;55654;50.966;6.878;2023-08-20T04:36:44;20.80;;;15.02;;
43529;SDS011;55654;50.966;6.878;2023-08-20T04:39:10;22.17;;;15.00;;
43529;SDS011;55654;50.966;6.878;2023-08-20T04:41:36;25.52;;;14.35;;
43529;SDS011;55654;50.966;6.878;2023-08-20T04:44:02;21.35;;;13.82;;
43529;SDS011;55654;50.966;6.878;2023-08-20T04:46:30;17.90;;;13.07;;
43529;SDS011;55654;50.966;6.878;2023-08-20T04:48:56;19.13;;;13.52;;
43529;SDS011;55654;50.966;6.878;2023-08-20T04:51:22;22.42;;;13.07;;
43529;SDS011;55654;50.966;6.878;2023-08-20T04:53:51;17.13;;;13.15;;
43529;SDS011;55654;50.966;6.878;2023-08-20T04:56:17;18.20;;;13.00;;
43529;SDS011;55654;50.966;6.878;2023-08-20T04:58:45;22.13;;;14.25;;
43529;SDS011;55654;50.966;6.878;2023-08-20T05:01:11;25.27;;;13.23;;
43529;SDS011;55654;50.966;6.878;2023-08-20T05:03:42;23.20;;;14.68;;
43529;SDS011;55654;50.966;6.878;2023-08-20T05:06:08;20.10;;;12.82;;
43529;SDS011;55654;50.966;6.878;2023-08-20T05:08:36;19.92;;;14.43;;
43529;SDS011;55654;50.966;6.878;2023-08-20T05:11:04;19.20;;;12.82;;
43529;SDS011;55654;50.966;6.878;2023-08-20T05:13:30;19.13;;;12.82;;
43529;SDS011;55654;50.966;6.878;2023-08-20T05:15:56;27.17;;;14.07;;
43529;SDS011;55654;50.966;6.878;2023-08-20T05:18:22;20.58;;;13.63;;
43529;SDS011;55654;50.966;6.878;2023-08-20T05:20:48;23.17;;;13.52;;
43529;SDS011;55654;50.966;6.878;2023-08-20T05:23:14;20.25;;;13.25;;
43529;SDS011;55654;50.966;6.878;2023-08-20T05:25:40;21.08;;;13.55;;
43529;SDS011;55654;50.966;6.878;2023-08-20T05:28:06;23.30;;;13.65;;
43529;SDS011;55654;50.966;6.878;2023-08-20T05:30:33;23.30;;;13.35;;
43529;SDS011;55654;50.966;6.878;2023-08-20T05:32:59;28.70;;;13.93;;
43529;SDS011;55654;50.966;6.878;2023-08-20T05:35:25;18.13;;;12.02;;
43529;SDS011;55654;50.966;6.878;2023-08-20T05:37:51;22.58;;;12.07;;
43529;SDS011;55654;50.966;6.878;2023-08-20T05:40:17;18.42;;;12.20;;
43529;SDS011;55654;50.966;6.878;2023-08-20T05:42:43;18.80;;;11.63;;
43529;SDS011;55654;50.966;6.878;2023-08-20T05:45:09;24.52;;;12.25;;
43529;SDS011;55654;50.966;6.878;2023-08-20T05:47:35;21.35;;;11.38;;
43529;SDS011;55654;50.966;6.878;2023-08-20T05:50:03;21.25;;;13.05;;
43529;SDS011;55654;50.966;6.878;2023-08-20T05:52:29;24.90;;;12.23;;
43529;SDS011;55654;50.966;6.878;2023-08-20T05:54:55;17.80;;;10.38;;
43529;SDS011;55654;50.966;6.878;2023-08-20T05:57:24;18.38;;;12.15;;
43529;SDS011;55654;50.966;6.878;2023-08-20T05:59:52;20.63;;;12.23;;
43529;SDS011;55654;50.966;6.878;2023-08-20T06:02:18;20.05;;;11.27;;
43529;SDS011;55654;50.966;6.878;2023-08-20T06:04:44;20.02;;;11.10;;
43529;SDS011;55654;50.966;6.878;2023-08-20T06:07:10;16.63;;;10.95;;
43529;SDS011;55654;50.966;6.878;2023-08-20T06:09:36;18.42;;;11.85;;
43529;SDS011;55654;50.966;6.878;2023-08-20T06:12:05;20.63;;;11.82;;
43529;SDS011;55654;50.966;6.878;2023-08-20T06:14:31;23.48;;;12.13;;
43529;SDS011;55654;50.966;6.878;2023-08-20T06:16:57;19.08;;;12.20;;
43529;SDS011;55654;50.966;6.878;2023-08-20T06:19:23;23.90;;;12.43;;
43529;SDS011;55654;50.966;6.878;2023-08-20T06:21:51;20.83;;;11.60;;
43529;SDS011;55654;50.966;6.878;2023-08-20T06:24:17;17.02;;;11.50;;
43529;SDS011;55654;50.966;6.878;2023-08-20T06:26:43;18.63;;;12.23;;
43529;SDS011;55654;50.966;6.878;2023-08-20T06:29:10;17.10;;;10.98;;
43529;SDS011;55654;50.966;6.878;2023-08-20T06:31:38;20.88;;;11.88;;
43529;SDS011;55654;50.966;6.878;2023-08-20T06:34:04;22.60;;;12.45;;
43529;SDS011;55654;50.966;6.878;2023-08-20T06:36:30;23.48;;;12.25;;
43529;SDS011;55654;50.966;6.878;2023-08-20T06:38:56;19.80;;;12.20;;
43529;SDS011;55654;50.966;6.878;2023-08-20T06:41:24;18.10;;;11.25;;
43529;SDS011;55654;50.966;6.878;2023-08-20T06:43:50;17.60;;;11.85;;
43529;SDS011;55654;50.966;6.878;2023-08-20T06:46:16;18.42;;;11.63;;
43529;SDS011;55654;50.966;6.878;2023-08-20T06:48:42;16.70;;;11.48;;
43529;SDS011;55654;50.966;6.878;2023-08-20T06:51:11;14.60;;;10.00;;
43529;SDS011;55654;50.966;6.878;2023-08-20T06:53:37;17.10;;;11.43;;
43529;SDS011;55654;50.966;6.878;2023-08-20T06:56:03;21.55;;;11.57;;
43529;SDS011;55654;50.966;6.878;2023-08-20T06:58:29;17.90;;;10.18;;
43529;SDS011;55654;50.966;6.878;2023-08-20T07:00:55;15.57;;;10.65;;
43529;SDS011;55654;50.966;6.878;2023-08-20T07:03:21;17.40;;;12.18;;
43529;SDS011;55654;50.966;6.878;2023-08-20T07:05:49;20.17;;;11.15;;
43529;SDS011;55654;50.966;6.878;2023-08-20T07:08:15;13.73;;;9.55;;
43529;SDS011;55654;50.966;6.878;2023-08-20T07:10:41;18.27;;;10.88;;
43529;SDS011;55654;50.966;6.878;2023-08-20T07:13:07;18.70;;;10.75;;
43529;SDS011;55654;50.966;6.878;2023-08-20T07:15:33;18.17;;;11.50;;
43529;SDS011;55654;50.966;6.878;2023-08-20T07:18:01;17.13;;;10.48;;
43529;SDS011;55654;50.966;6.878;2023-08-20T07:20:27;17.15;;;11.60;;
43529;SDS011;55654;50.966;6.878;2023-08-20T07:22:53;22.60;;;13.35;;
43529;SDS011;55654;50.966;6.878;2023-08-20T07:25:22;22.58;;;14.85;;
43529;SDS011;55654;50.966;6.878;2023-08-20T07:27:50;23.42;;;14.38;;
43529;SDS011;55654;50.966;6.878;2023-08-20T07:30:16;26.05;;;15.85;;
43529;SDS011;55654;50.966;6.878;2023-08-20T07:32:45;28.52;;;16.52;;
43529;SDS011;55654;50.966;6.878;2023-08-20T07:35:11;19.70;;;14.05;;
43529;SDS011;55654;50.966;6.878;2023-08-20T07:37:36;23.25;;;14.98;;
43529;SDS011;55654;50.966;6.878;2023-08-20T07:40:05;21.75;;;15.60;;
43529;SDS011;55654;50.966;6.878;2023-08-20T07:42:31;26.42;;;16.02;;
43529;SDS011;55654;50.966;6.878;2023-08-20T07:44:57;21.33;;;14.43;;
43529;SDS011;55654;50.966;6.878;2023-08-20T07:47:23;25.63;;;17.30;;
43529;SDS011;55654;50.966;6.878;2023-08-20T07:49:49;27.63;;;18.95;;
43529;SDS011;55654;50.966;6.878;2023-08-20T07:52:15;30.00;;;16.90;;
43529;SDS011;55654;50.966;6.878;2023-08-20T07:54:41;22.95;;;14.50;;
43529;SDS011;55654;50.966;6.878;2023-08-20T07:57:09;21.45;;;14.35;;
43529;SDS011;55654;50.966;6.878;2023-08-20T07:59:35;19.67;;;13.73;;
43529;SDS011;55654;50.966;6.878;2023-08-20T08:02:03;22.58;;;14.43;;
43529;SDS011;55654;50.966;6.878;2023-08-20T08:04:29;21.60;;;14.07;;
43529;SDS011;55654;50.966;6.878;2023-08-20T08:06:55;19.75;;;13.13;;
43529;SDS011;55654;50.966;6.878;2023-08-20T08:09:26;22.80;;;15.60;;
43529;SDS011;55654;50.966;6.878;2023-08-20T08:11:52;24.20;;;16.05;;
43529;SDS011;55654;50.966;6.878;2023-08-20T08:14:20;22.02;;;16.25;;
43529;SDS011;55654;50.966;6.878;2023-08-20T08:16:48;25.63;;;15.65;;
43529;SDS011;55654;50.966;6.878;2023-08-20T08:19:17;24.30;;;15.10;;
43529;SDS011;55654;50.966;6.878;2023-08-20T08:21:47;26.63;;;16.13;;
43529;SDS011;55654;50.966;6.878;2023-08-20T08:24:14;26.02;;;16.25;;
43529;SDS011;55654;50.966;6.878;2023-08-20T08:26:42;22.98;;;15.05;;
43529;SDS011;55654;50.966;6.878;2023-08-20T08:29:08;22.63;;;15.13;;
43529;SDS011;55654;50.966;6.878;2023-08-20T08:31:37;24.25;;;15.35;;
43529;SDS011;55654;50.966;6.878;2023-08-20T08:34:03;22.38;;;14.43;;
43529;SDS011;55654;50.966;6.878;2023-08-20T08:36:29;27.20;;;15.82;;
43529;SDS011;55654;50.966;6.878;2023-08-20T08:38:55;22.15;;;13.98;;
43529;SDS011;55654;50.966;6.878;2023-08-20T08:41:21;18.13;;;12.98;;
43529;SDS011;55654;50.966;6.878;2023-08-20T08:43:51;17.15;;;12.90;;
43529;SDS011;55654;50.966;6.878;2023-08-20T08:46:17;19.48;;;13.55;;
43529;SDS011;55654;50.966;6.878;2023-08-20T08:48:45;26.70;;;15.82;;
43529;SDS011;55654;50.966;6.878;2023-08-20T08:51:13;21.38;;;14.70;;
43529;SDS011;55654;50.966;6.878;2023-08-20T08:53:39;20.77;;;13.52;;
43529;SDS011;55654;50.966;6.878;2023-08-20T08:56:05;23.25;;;15.25;;
43529;SDS011;55654;50.966;6.878;2023-08-20T08:58:31;24.60;;;12.90;;
43529;SDS011;55654;50.966;6.878;2023-08-20T09:01:00;20.75;;;14.88;;
43529;SDS011;55654;50.966;6.878;2023-08-20T09:03:26;22.50;;;12.45;;
43529;SDS011;55654;50.966;6.878;2023-08-20T09:05:56;25.63;;;16.63;;
43529;SDS011;55654;50.966;6.878;2023-08-20T09:08:32;20.80;;;13.60;;
43529;SDS011;55654;50.966;6.878;2023-08-20T09:11:00;16.63;;;11.52;;
43529;SDS011;55654;50.966;6.878;2023-08-20T09:13:37;20.52;;;12.77;;
43529;SDS011;55654;50.966;6.878;2023-08-20T09:16:09;19.05;;;10.38;;
43529;SDS011;55654;50.966;6.878;2023-08-20T09:18:39;17.75;;;10.32;;
43529;SDS011;55654;50.966;6.878;2023-08-20T09:21:08;20.88;;;11.88;;
43529;SDS011;55654;50.966;6.878;2023-08-20T09:23:37;23.42;;;12.32;;
43529;SDS011;55654;50.966;6.878;2023-08-20T09:26:08;14.00;;;10.07;;
43529;SDS011;55654;50.966;6.878;2023-08-20T09:28:44;15.32;;;11.52;;
43529;SDS011;55654;50.966;6.878;2023-08-20T09:31:13;14.30;;;9.88;;
43529;SDS011;55654;50.966;6.878;2023-08-20T09:33:48;16.05;;;10.75;;
43529;SDS011;55654;50.966;6.878;2023-08-20T09:36:17;16.55;;;10.60;;
43529;SDS011;55654;50.966;6.878;2023-08-20T09:38:43;13.07;;;9.00;;
43529;SDS011;55654;50.966;6.878;2023-08-20T09:41:09;12.60;;;9.75;;
43529;SDS011;55654;50.966;6.878;2023-08-20T09:43:40;12.63;;;8.93;;
43529;SDS011;55654;50.966;6.878;2023-08-20T09:46:07;15.63;;;10.50;;
43529;SDS011;55654;50.966;6.878;2023-08-20T09:48:36;17.05;;;10.65;;
43529;SDS011;55654;50.966;6.878;2023-08-20T09:51:04;13.55;;;9.48;;
43529;SDS011;55654;50.966;6.878;2023-08-20T09:56:04;13.85;;;9.70;;
43529;SDS011;55654;50.966;6.878;2023-08-20T09:58:32;12.48;;;8.73;;
43529;SDS011;55654;50.966;6.878;2023-08-20T10:00:59;14.40;;;7.07;;
43529;SDS011;55654;50.966;6.878;2023-08-20T10:03:25;15.90;;;10.32;;
43529;SDS011;55654;50.966;6.878;2023-08-20T10:05:53;14.20;;;8.77;;
43529;SDS011;55654;50.966;6.878;2023-08-20T10:08:20;15.20;;;8.55;;
43529;SDS011;55654;50.966;6.878;2023-08-20T10:10:46;13.20;;;9.45;;
43529;SDS011;55654;50.966;6.878;2023-08-20T10:13:13;15.02;;;10.15;;
43529;SDS011;55654;50.966;6.878;2023-08-20T10:15:39;13.77;;;9.27;;
43529;SDS011;55654;50.966;6.878;2023-08-20T10:18:07;13.02;;;9.20;;
43529;SDS011;55654;50.966;6.878;2023-08-20T10:20:33;12.32;;;8.20;;
43529;SDS011;55654;50.966;6.878;2023-08-20T10:23:00;12.40;;;8.35;;
43529;SDS011;55654;50.966;6.878;2023-08-20T10:25:26;10.75;;;7.80;;
43529;SDS011;55654;50.966;6.878;2023-08-20T10:28:10;11.15;;;8.70;;
43529;SDS011;55654;50.966;6.878;2023-08-20T10:30:37;12.55;;;8.57;;
43529;SDS011;55654;50.966;6.878;2023-08-20T10:33:05;13.50;;;8.05;;
43529;SDS011;55654;50.966;6.878;2023-08-20T10:38:11;9.93;;;7.63;;
43529;SDS011;55654;50.966;6.878;2023-08-20T10:40:54;11.63;;;7.97;;
43529;SDS011;55654;50.966;6.878;2023-08-20T10:43:40;10.82;;;8.30;;
43529;SDS011;55654;50.966;6.878;2023-08-20T10:46:06;10.18;;;8.45;;
43529;SDS011;55654;50.966;6.878;2023-08-20T10:48:33;9.98;;;7.70;;
43529;SDS011;55654;50.966;6.878;2023-08-20T10:51:05;12.32;;;8.05;;
43529;SDS011;55654;50.966;6.878;2023-08-20T10:53:31;9.32;;;7.32;;
43529;SDS011;55654;50.966;6.878;2023-08-20T10:56:06;9.13;;;7.20;;
43529;SDS011;55654;50.966;6.878;2023-08-20T10:58:32;15.07;;;8.50;;
43529;SDS011;55654;50.966;6.878;2023-08-20T11:01:32;11.23;;;9.13;;
43529;SDS011;55654;50.966;6.878;2023-08-20T11:03:51;10.73;;;7.22;;
43529;SDS011;55654;50.966;6.878;2023-08-20T11:06:19;10.73;;;7.22;;
43529;SDS011;55654;50.966;6.878;2023-08-20T11:08:45;10.20;;;7.35;;
43529;SDS011;55654;50.966;6.878;2023-08-20T11:11:14;12.43;;;7.50;;
43529;SDS011;55654;50.966;6.878;2023-08-20T11:13:40;9.30;;;8.02;;
43529;SDS011;55654;50.966;6.878;2023-08-20T11:16:07;10.27;;;6.78;;
43529;SDS011;55654;50.966;6.878;2023-08-20T11:18:36;8.73;;;6.63;;
43529;SDS011;55654;50.966;6.878;2023-08-20T11:21:03;7.53;;;6.50;;
43529;SDS011;55654;50.966;6.878;2023-08-20T11:23:29;7.35;;;5.90;;
43529;SDS011;55654;50.966;6.878;2023-08-20T11:25:56;8.77;;;6.68;;
43529;SDS011;55654;50.966;6.878;2023-08-20T11:28:22;12.82;;;7.05;;
43529;SDS011;55654;50.966;6.878;2023-08-20T11:30:53;9.90;;;6.88;;
43529;SDS011;55654;50.966;6.878;2023-08-20T11:33:20;11.50;;;7.00;;
43529;SDS011;55654;50.966;6.878;2023-08-20T11:35:49;8.80;;;6.40;;
43529;SDS011;55654;50.966;6.878;2023-08-20T11:38:15;9.77;;;5.55;;
43529;SDS011;55654;50.966;6.878;2023-08-20T11:40:41;10.50;;;6.53;;
43529;SDS011;55654;50.966;6.878;2023-08-20T11:43:07;7.70;;;6.18;;
43529;SDS011;55654;50.966;6.878;2023-08-20T11:45:35;7.38;;;5.80;;
43529;SDS011;55654;50.966;6.878;2023-08-20T11:48:09;7.93;;;5.35;;
43529;SDS011;55654;50.966;6.878;2023-08-20T11:50:35;6.53;;;4.70;;
43529;SDS011;55654;50.966;6.878;2023-08-20T11:53:02;8.38;;;5.50;;
43529;SDS011;55654;50.966;6.878;2023-08-20T11:55:31;6.72;;;5.25;;
43529;SDS011;55654;50.966;6.878;2023-08-20T11:57:57;6.20;;;5.50;;
43529;SDS011;55654;50.966;6.878;2023-08-20T12:00:26;7.72;;;5.40;;
43529;SDS011;55654;50.966;6.878;2023-08-20T12:02:53;11.13;;;5.82;;
43529;SDS011;55654;50.966;6.878;2023-08-20T12:05:25;9.00;;;5.53;;
43529;SDS011;55654;50.966;6.878;2023-08-20T12:07:58;6.50;;;4.97;;
43529;SDS011;55654;50.966;6.878;2023-08-20T12:10:25;6.45;;;5.10;;
43529;SDS011;55654;50.966;6.878;2023-08-20T12:12:54;6.68;;;5.40;;
43529;SDS011;55654;50.966;6.878;2023-08-20T12:15:20;6.45;;;5.25;;
43529;SDS011;55654;50.966;6.878;2023-08-20T12:20:22;7.53;;;6.53;;
43529;SDS011;55654;50.966;6.878;2023-08-20T12:22:48;6.20;;;5.32;;
43529;SDS011;55654;50.966;6.878;2023-08-20T12:25:15;11.13;;;5.72;;
43529;SDS011;55654;50.966;6.878;2023-08-20T12:27:41;8.20;;;5.57;;
43529;SDS011;55654;50.966;6.878;2023-08-20T12:30:07;7.10;;;5.43;;
43529;SDS011;55654;50.966;6.878;2023-08-20T12:32:33;7.15;;;5.75;;
43529;SDS011;55654;50.966;6.878;2023-08-20T12:34:59;7.47;;;5.63;;
43529;SDS011;55654;50.966;6.878;2023-08-20T12:37:25;5.90;;;5.22;;
43529;SDS011;55654;50.966;6.878;2023-08-20T12:39:51;6.63;;;4.95;;
43529;SDS011;55654;50.966;6.878;2023-08-20T12:42:17;14.82;;;6.00;;
43529;SDS011;55654;50.966;6.878;2023-08-20T12:44:43;7.88;;;5.60;;
43529;SDS011;55654;50.966;6.878;2023-08-20T12:47:09;8.02;;;5.10;;
43529;SDS011;55654;50.966;6.878;2023-08-20T12:49:39;5.63;;;4.70;;
43529;SDS011;55654;50.966;6.878;2023-08-20T12:52:08;8.07;;;5.22;;
43529;SDS011;55654;50.966;6.878;2023-08-20T12:54:36;6.40;;;5.03;;
43529;SDS011;55654;50.966;6.878;2023-08-20T12:57:02;7.05;;;5.30;;
43529;SDS011;55654;50.966;6.878;2023-08-20T12:59:28;8.38;;;4.40;;
43529;SDS011;55654;50.966;6.878;2023-08-20T13:01:57;7.47;;;5.05;;
43529;SDS011;55654;50.966;6.878;2023-08-20T13:04:23;5.85;;;4.95;;
43529;SDS011;55654;50.966;6.878;2023-08-20T13:06:49;5.30;;;4.53;;
43529;SDS011;55654;50.966;6.878;2023-08-20T13:09:18;6.05;;;4.65;;
43529;SDS011;55654;50.966;6.878;2023-08-20T13:11:44;6.47;;;4.20;;
43529;SDS011;55654;50.966;6.878;2023-08-20T13:14:10;6.50;;;4.38;;
43529;SDS011;55654;50.966;6.878;2023-08-20T13:16:36;4.03;;;3.47;;
43529;SDS011;55654;50.966;6.878;2023-08-20T13:19:02;4.70;;;3.55;;
43529;SDS011;55654;50.966;6.878;2023-08-20T13:21:31;6.40;;;4.35;;
43529;SDS011;55654;50.966;6.878;2023-08-20T13:23:57;4.07;;;3.67;;
43529;SDS011;55654;50.966;6.878;2023-08-20T13:26:22;6.50;;;3.53;;
43529;SDS011;55654;50.966;6.878;2023-08-20T13:28:48;4.78;;;4.03;;
43529;SDS011;55654;50.966;6.878;2023-08-20T13:31:14;4.80;;;3.47;;
43529;SDS011;55654;50.966;6.878;2023-08-20T13:33:40;4.90;;;3.83;;
43529;SDS011;55654;50.966;6.878;2023-08-20T13:36:09;8.27;;;3.65;;
43529;SDS011;55654;50.966;6.878;2023-08-20T13:38:35;11.38;;;4.63;;
43529;SDS011;55654;50.966;6.878;2023-08-20T13:41:01;7.50;;;3.97;;
43529;SDS011;55654;50.966;6.878;2023-08-20T13:43:26;5.90;;;4.03;;
43529;SDS011;55654;50.966;6.878;2023-08-20T13:45:55;6.15;;;3.67;;
43529;SDS011;55654;50.966;6.878;2023-08-20T13:48:21;5.32;;;3.40;;
43529;SDS011;55654;50.966;6.878;2023-08-20T13:50:47;5.53;;;3.72;;
43529;SDS011;55654;50.966;6.878;2023-08-20T13:53:13;5.80;;;3.20;;
43529;SDS011;55654;50.966;6.878;2023-08-20T13:55:39;5.22;;;3.72;;
43529;SDS011;55654;50.966;6.878;2023-08-20T13:58:05;8.85;;;4.22;;
43529;SDS011;55654;50.966;6.878;2023-08-20T14:00:32;4.70;;;3.50;;
43529;SDS011;55654;50.966;6.878;2023-08-20T14:03:00;3.60;;;3.28;;
43529;SDS011;55654;50.966;6.878;2023-08-20T14:05:29;5.32;;;3.67;;
43529;SDS011;55654;50.966;6.878;2023-08-20T14:07:55;5.22;;;3.42;;
43529;SDS011;55654;50.966;6.878;2023-08-20T14:10:21;18.50;;;4.63;;
43529;SDS011;55654;50.966;6.878;2023-08-20T14:12:49;5.03;;;3.28;;
43529;SDS011;55654;50.966;6.878;2023-08-20T14:15:17;5.25;;;3.45;;
43529;SDS011;55654;50.966;6.878;2023-08-20T14:17:43;4.68;;;3.67;;
43529;SDS011;55654;50.966;6.878;2023-08-20T14:20:12;5.32;;;3.20;;
43529;SDS011;55654;50.966;6.878;2023-08-20T14:22:39;5.95;;;4.10;;
43529;SDS011;55654;50.966;6.878;2023-08-20T14:25:05;5.32;;;4.00;;
43529;SDS011;55654;50.966;6.878;2023-08-20T14:27:31;6.30;;;3.45;;
43529;SDS011;55654;50.966;6.878;2023-08-20T14:29:57;5.93;;;3.47;;
43529;SDS011;55654;50.966;6.878;2023-08-20T14:32:25;6.65;;;3.38;;
43529;SDS011;55654;50.966;6.878;2023-08-20T14:34:51;4.25;;;3.72;;
43529;SDS011;55654;50.966;6.878;2023-08-20T14:37:19;6.13;;;3.45;;
43529;SDS011;55654;50.966;6.878;2023-08-20T14:39:49;6.78;;;4.07;;
43529;SDS011;55654;50.966;6.878;2023-08-20T14:42:17;7.15;;;4.10;;
43529;SDS011;55654;50.966;6.878;2023-08-20T14:44:46;7.43;;;3.90;;
43529;SDS011;55654;50.966;6.878;2023-08-20T14:47:13;5.45;;;3.47;;
43529;SDS011;55654;50.966;6.878;2023-08-20T14:49:41;3.75;;;3.17;;